sensor_id;sensor_type;location;lat;lon;timestamp;P1;durP1;ratioP1;P2;durP2;ratioP2
64459;SDS011;50828;53.756;21.140;2024-01-15T00:03:37;5.70;;;3.30;;
64459;SDS011;50828;53.756;21.140;2024-01-15T00:08:47;5.10;;;3.00;;
64459;SDS011;50828;53.756;21.140;2024-01-15T00:13:54;4.60;;;2.90;;
64459;SDS011;50828;53.756;21.140;2024-01-15T00:19:02;5.40;;;3.20;;
64459;SDS011;50828;53.756;21.140;2024-01-15T00:24:09;3.60;;;2.70;;
64459;SDS011;50828;53.756;21.140;2024-01-15T00:29:17;5.10;;;3.40;;
64459;SDS011;50828;53.756;21.140;2024-01-15T00:34:24;6.00;;;3.40;;
64459;SDS011;50828;53.756;21.140;2024-01-15T00:39:32;8.10;;;3.60;;
64459;SDS011;50828;53.756;21.140;2024-01-15T00:44:39;5.90;;;2.90;;
64459;SDS011;50828;53.756;21.140;2024-01-15T00:49:47;5.40;;;3.40;;
64459;SDS011;50828;53.756;21.140;2024-01-15T00:54:54;5.90;;;3.40;;
64459;SDS011;50828;53.756;21.140;2024-01-15T01:00:01;5.00;;;3.20;;
64459;SDS011;50828;53.756;21.140;2024-01-15T01:05:10;7.40;;;3.70;;
64459;SDS011;50828;53.756;21.140;2024-01-15T01:10:18;6.90;;;3.50;;
64459;SDS011;50828;53.756;21.140;2024-01-15T01:15:25;7.50;;;3.90;;
64459;SDS011;50828;53.756;21.140;2024-01-15T01:20:32;6.00;;;3.30;;
64459;SDS011;50828;53.756;21.140;2024-01-15T01:25:40;8.00;;;3.90;;
64459;SDS011;50828;53.756;21.140;2024-01-15T01:30:48;8.70;;;3.70;;
64459;SDS011;50828;53.756;21.140;2024-01-15T01:35:56;5.20;;;3.40;;
64459;SDS011;50828;53.756;21.140;2024-01-15T01:41:03;8.30;;;3.40;;
64459;SDS011;50828;53.756;21.140;2024-01-15T01:46:11;6.10;;;3.70;;
64459;SDS011;50828;53.756;21.140;2024-01-15T01:51:18;4.60;;;3.30;;
64459;SDS011;50828;53.756;21.140;2024-01-15T01:56:27;6.00;;;3.50;;
64459;SDS011;50828;53.756;21.140;2024-01-15T02:01:35;7.00;;;3.60;;
64459;SDS011;50828;53.756;21.140;2024-01-15T02:06:43;6.80;;;3.30;;
64459;SDS011;50828;53.756;21.140;2024-01-15T02:11:51;7.70;;;4.10;;
64459;SDS011;50828;53.756;21.140;2024-01-15T02:16:59;5.90;;;3.70;;
64459;SDS011;50828;53.756;21.140;2024-01-15T02:22:07;6.00;;;3.50;;
64459;SDS011;50828;53.756;21.140;2024-01-15T02:27:14;7.10;;;3.90;;
64459;SDS011;50828;53.756;21.140;2024-01-15T02:32:23;6.30;;;4.10;;
64459;SDS011;50828;53.756;21.140;2024-01-15T02:37:30;8.10;;;3.80;;
64459;SDS011;50828;53.756;21.140;2024-01-15T02:42:38;6.20;;;3.70;;
64459;SDS011;50828;53.756;21.140;2024-01-15T02:47:45;6.60;;;4.20;;
64459;SDS011;50828;53.756;21.140;2024-01-15T02:52:53;7.40;;;4.00;;
64459;SDS011;50828;53.756;21.140;2024-01-15T02:58:00;7.40;;;4.90;;
64459;SDS011;50828;53.756;21.140;2024-01-15T03:03:08;7.50;;;4.10;;
64459;SDS011;50828;53.756;21.140;2024-01-15T03:08:15;6.50;;;4.00;;
64459;SDS011;50828;53.756;21.140;2024-01-15T03:13:23;8.20;;;4.70;;
64459;SDS011;50828;53.756;21.140;2024-01-15T03:18:30;6.80;;;4.60;;
64459;SDS011;50828;53.756;21.140;2024-01-15T03:23:38;9.30;;;4.80;;
64459;SDS011;50828;53.756;21.140;2024-01-15T03:28:45;7.90;;;4.70;;
64459;SDS011;50828;53.756;21.140;2024-01-15T03:33:52;7.70;;;4.70;;
64459;SDS011;50828;53.756;21.140;2024-01-15T03:39:00;6.90;;;4.30;;
64459;SDS011;50828;53.756;21.140;2024-01-15T03:44:07;11.80;;;6.00;;
64459;SDS011;50828;53.756;21.140;2024-01-15T03:49:15;8.60;;;4.80;;
64459;SDS011;50828;53.756;21.140;2024-01-15T03:54:22;7.70;;;5.00;;
64459;SDS011;50828;53.756;21.140;2024-01-15T03:59:30;10.80;;;5.30;;
64459;SDS011;50828;53.756;21.140;2024-01-15T04:04:40;8.20;;;5.60;;
64459;SDS011;50828;53.756;21.140;2024-01-15T04:09:48;8.80;;;5.50;;
64459;SDS011;50828;53.756;21.140;2024-01-15T04:14:55;12.70;;;6.40;;
64459;SDS011;50828;53.756;21.140;2024-01-15T04:20:03;9.00;;;6.40;;
64459;SDS011;50828;53.756;21.140;2024-01-15T04:25:12;9.20;;;5.40;;
64459;SDS011;50828;53.756;21.140;2024-01-15T04:30:20;9.50;;;6.00;;
64459;SDS011;50828;53.756;21.140;2024-01-15T04:35:27;12.20;;;7.10;;
64459;SDS011;50828;53.756;21.140;2024-01-15T04:40:35;10.60;;;6.60;;
64459;SDS011;50828;53.756;21.140;2024-01-15T04:45:42;10.40;;;6.80;;
64459;SDS011;50828;53.756;21.140;2024-01-15T04:50:49;10.30;;;6.30;;
64459;SDS011;50828;53.756;21.140;2024-01-15T04:55:57;11.00;;;6.50;;
64459;SDS011;50828;53.756;21.140;2024-01-15T05:01:04;14.90;;;7.70;;
64459;SDS011;50828;53.756;21.140;2024-01-15T05:06:14;13.70;;;7.70;;
64459;SDS011;50828;53.756;21.140;2024-01-15T05:11:21;12.20;;;7.40;;
64459;SDS011;50828;53.756;21.140;2024-01-15T05:16:28;10.50;;;7.00;;
64459;SDS011;50828;53.756;21.140;2024-01-15T05:21:35;10.70;;;6.50;;
64459;SDS011;50828;53.756;21.140;2024-01-15T05:26:43;14.10;;;7.20;;
64459;SDS011;50828;53.756;21.140;2024-01-15T05:31:50;13.70;;;8.00;;
64459;SDS011;50828;53.756;21.140;2024-01-15T05:42:08;10.00;;;6.70;;
64459;SDS011;50828;53.756;21.140;2024-01-15T05:47:16;10.50;;;6.60;;
64459;SDS011;50828;53.756;21.140;2024-01-15T05:52:23;10.30;;;6.50;;
64459;SDS011;50828;53.756;21.140;2024-01-15T05:57:31;11.00;;;6.50;;
64459;SDS011;50828;53.756;21.140;2024-01-15T06:02:38;9.30;;;6.60;;
64459;SDS011;50828;53.756;21.140;2024-01-15T06:07:45;9.90;;;6.60;;
64459;SDS011;50828;53.756;21.140;2024-01-15T06:12:53;11.20;;;7.10;;
64459;SDS011;50828;53.756;21.140;2024-01-15T06:18:00;11.20;;;7.20;;
64459;SDS011;50828;53.756;21.140;2024-01-15T06:23:08;11.60;;;7.00;;
64459;SDS011;50828;53.756;21.140;2024-01-15T06:28:15;12.10;;;7.30;;
64459;SDS011;50828;53.756;21.140;2024-01-15T06:33:22;11.10;;;7.10;;
64459;SDS011;50828;53.756;21.140;2024-01-15T06:38:30;10.60;;;7.10;;
64459;SDS011;50828;53.756;21.140;2024-01-15T06:43:37;10.70;;;6.60;;
64459;SDS011;50828;53.756;21.140;2024-01-15T06:48:45;12.10;;;7.20;;
64459;SDS011;50828;53.756;21.140;2024-01-15T06:53:52;11.90;;;7.10;;
64459;SDS011;50828;53.756;21.140;2024-01-15T06:58:59;11.10;;;6.70;;
64459;SDS011;50828;53.756;21.140;2024-01-15T07:04:07;11.70;;;7.40;;
64459;SDS011;50828;53.756;21.140;2024-01-15T07:09:14;10.40;;;7.20;;
64459;SDS011;50828;53.756;21.140;2024-01-15T07:14:22;11.60;;;6.40;;
64459;SDS011;50828;53.756;21.140;2024-01-15T07:19:30;11.70;;;7.30;;
64459;SDS011;50828;53.756;21.140;2024-01-15T07:24:37;12.50;;;7.60;;
64459;SDS011;50828;53.756;21.140;2024-01-15T07:29:45;10.70;;;7.30;;
64459;SDS011;50828;53.756;21.140;2024-01-15T07:34:55;9.80;;;6.80;;
64459;SDS011;50828;53.756;21.140;2024-01-15T07:40:04;9.10;;;6.10;;
64459;SDS011;50828;53.756;21.140;2024-01-15T07:45:14;9.50;;;6.00;;
64459;SDS011;50828;53.756;21.140;2024-01-15T07:50:22;8.30;;;5.30;;
64459;SDS011;50828;53.756;21.140;2024-01-15T07:55:31;7.80;;;5.20;;
64459;SDS011;50828;53.756;21.140;2024-01-15T08:00:39;9.20;;;5.30;;
64459;SDS011;50828;53.756;21.140;2024-01-15T08:05:47;7.90;;;4.90;;
64459;SDS011;50828;53.756;21.140;2024-01-15T08:10:56;7.00;;;4.30;;
64459;SDS011;50828;53.756;21.140;2024-01-15T08:16:04;8.30;;;4.50;;
64459;SDS011;50828;53.756;21.140;2024-01-15T08:21:11;7.20;;;3.70;;
64459;SDS011;50828;53.756;21.140;2024-01-15T08:26:20;6.40;;;3.90;;
64459;SDS011;50828;53.756;21.140;2024-01-15T08:31:28;5.90;;;3.80;;
64459;SDS011;50828;53.756;21.140;2024-01-15T08:36:38;6.20;;;3.60;;
64459;SDS011;50828;53.756;21.140;2024-01-15T08:41:46;8.10;;;3.40;;
64459;SDS011;50828;53.756;21.140;2024-01-15T08:46:55;6.90;;;3.60;;
64459;SDS011;50828;53.756;21.140;2024-01-15T08:52:03;10.10;;;2.80;;
64459;SDS011;50828;53.756;21.140;2024-01-15T08:57:12;8.20;;;3.10;;
64459;SDS011;50828;53.756;21.140;2024-01-15T09:02:20;5.80;;;2.60;;
64459;SDS011;50828;53.756;21.140;2024-01-15T09:07:28;6.10;;;2.70;;
64459;SDS011;50828;53.756;21.140;2024-01-15T09:12:37;4.00;;;2.40;;
64459;SDS011;50828;53.756;21.140;2024-01-15T09:17:45;4.90;;;2.50;;
64459;SDS011;50828;53.756;21.140;2024-01-15T09:22:53;8.50;;;2.70;;
64459;SDS011;50828;53.756;21.140;2024-01-15T09:28:01;5.30;;;2.80;;
64459;SDS011;50828;53.756;21.140;2024-01-15T09:33:09;5.80;;;2.60;;
64459;SDS011;50828;53.756;21.140;2024-01-15T09:38:20;9.80;;;2.80;;
64459;SDS011;50828;53.756;21.140;2024-01-15T09:43:29;6.40;;;2.40;;
64459;SDS011;50828;53.756;21.140;2024-01-15T09:48:37;6.40;;;2.50;;
64459;SDS011;50828;53.756;21.140;2024-01-15T09:53:45;5.80;;;2.70;;
64459;SDS011;50828;53.756;21.140;2024-01-15T09:58:56;5.70;;;2.60;;
64459;SDS011;50828;53.756;21.140;2024-01-15T10:04:05;8.30;;;2.90;;
64459;SDS011;50828;53.756;21.140;2024-01-15T10:09:12;7.20;;;2.70;;
64459;SDS011;50828;53.756;21.140;2024-01-15T10:14:20;6.00;;;3.00;;
64459;SDS011;50828;53.756;21.140;2024-01-15T10:19:28;10.40;;;3.50;;
64459;SDS011;50828;53.756;21.140;2024-01-15T10:24:39;7.00;;;3.20;;
64459;SDS011;50828;53.756;21.140;2024-01-15T10:29:48;5.10;;;2.60;;
64459;SDS011;50828;53.756;21.140;2024-01-15T10:34:57;8.10;;;3.20;;
64459;SDS011;50828;53.756;21.140;2024-01-15T10:40:05;5.40;;;2.70;;
64459;SDS011;50828;53.756;21.140;2024-01-15T10:45:13;9.50;;;3.20;;
64459;SDS011;50828;53.756;21.140;2024-01-15T10:50:22;6.00;;;3.00;;
64459;SDS011;50828;53.756;21.140;2024-01-15T10:55:29;6.70;;;3.10;;
64459;SDS011;50828;53.756;21.140;2024-01-15T11:00:38;6.30;;;3.50;;
64459;SDS011;50828;53.756;21.140;2024-01-15T11:05:46;10.50;;;3.70;;
64459;SDS011;50828;53.756;21.140;2024-01-15T11:10:54;10.80;;;3.60;;
64459;SDS011;50828;53.756;21.140;2024-01-15T11:16:02;6.90;;;3.10;;
64459;SDS011;50828;53.756;21.140;2024-01-15T11:21:26;8.80;;;3.30;;
64459;SDS011;50828;53.756;21.140;2024-01-15T11:26:35;8.70;;;3.70;;
64459;SDS011;50828;53.756;21.140;2024-01-15T11:31:58;5.40;;;3.10;;
64459;SDS011;50828;53.756;21.140;2024-01-15T11:37:09;8.30;;;2.70;;
64459;SDS011;50828;53.756;21.140;2024-01-15T11:42:17;6.90;;;3.30;;
64459;SDS011;50828;53.756;21.140;2024-01-15T11:53:00;7.20;;;3.50;;
64459;SDS011;50828;53.756;21.140;2024-01-15T11:58:10;11.00;;;3.70;;
64459;SDS011;50828;53.756;21.140;2024-01-15T12:03:18;7.80;;;3.90;;
64459;SDS011;50828;53.756;21.140;2024-01-15T12:08:28;10.90;;;4.00;;
64459;SDS011;50828;53.756;21.140;2024-01-15T12:13:35;7.70;;;3.80;;
64459;SDS011;50828;53.756;21.140;2024-01-15T12:18:43;7.20;;;4.30;;
64459;SDS011;50828;53.756;21.140;2024-01-15T12:23:51;9.70;;;4.30;;
64459;SDS011;50828;53.756;21.140;2024-01-15T12:28:58;8.50;;;4.70;;
64459;SDS011;50828;53.756;21.140;2024-01-15T12:34:08;6.50;;;3.50;;
64459;SDS011;50828;53.756;21.140;2024-01-15T12:39:16;8.50;;;3.70;;
64459;SDS011;50828;53.756;21.140;2024-01-15T12:44:26;6.50;;;3.80;;
64459;SDS011;50828;53.756;21.140;2024-01-15T12:49:33;7.40;;;3.60;;
64459;SDS011;50828;53.756;21.140;2024-01-15T12:54:43;11.90;;;5.00;;
64459;SDS011;50828;53.756;21.140;2024-01-15T12:59:51;13.60;;;4.90;;
64459;SDS011;50828;53.756;21.140;2024-01-15T13:04:59;12.10;;;4.90;;
64459;SDS011;50828;53.756;21.140;2024-01-15T13:10:09;9.90;;;4.90;;
64459;SDS011;50828;53.756;21.140;2024-01-15T13:15:17;11.90;;;5.00;;
64459;SDS011;50828;53.756;21.140;2024-01-15T13:20:24;7.90;;;4.70;;
64459;SDS011;50828;53.756;21.140;2024-01-15T13:25:32;7.90;;;4.60;;
64459;SDS011;50828;53.756;21.140;2024-01-15T13:30:42;9.10;;;3.70;;
64459;SDS011;50828;53.756;21.140;2024-01-15T13:35:49;7.70;;;3.50;;
64459;SDS011;50828;53.756;21.140;2024-01-15T13:40:56;9.80;;;4.40;;
64459;SDS011;50828;53.756;21.140;2024-01-15T13:46:05;8.70;;;4.40;;
64459;SDS011;50828;53.756;21.140;2024-01-15T13:51:14;10.40;;;3.90;;
64459;SDS011;50828;53.756;21.140;2024-01-15T13:56:23;7.80;;;3.50;;
64459;SDS011;50828;53.756;21.140;2024-01-15T14:01:37;6.40;;;3.20;;
64459;SDS011;50828;53.756;21.140;2024-01-15T14:06:45;5.60;;;2.80;;
64459;SDS011;50828;53.756;21.140;2024-01-15T14:11:54;7.20;;;2.70;;
64459;SDS011;50828;53.756;21.140;2024-01-15T14:17:02;7.40;;;2.70;;
64459;SDS011;50828;53.756;21.140;2024-01-15T14:22:10;4.10;;;2.60;;
64459;SDS011;50828;53.756;21.140;2024-01-15T14:27:18;6.80;;;2.50;;
64459;SDS011;50828;53.756;21.140;2024-01-15T14:32:28;4.50;;;2.40;;
64459;SDS011;50828;53.756;21.140;2024-01-15T14:37:36;6.50;;;2.70;;
64459;SDS011;50828;53.756;21.140;2024-01-15T14:42:44;6.30;;;2.90;;
64459;SDS011;50828;53.756;21.140;2024-01-15T14:47:52;7.50;;;3.10;;
64459;SDS011;50828;53.756;21.140;2024-01-15T14:53:02;6.60;;;2.20;;
64459;SDS011;50828;53.756;21.140;2024-01-15T14:58:10;3.60;;;1.60;;
64459;SDS011;50828;53.756;21.140;2024-01-15T15:03:20;2.40;;;1.20;;
64459;SDS011;50828;53.756;21.140;2024-01-15T15:08:27;2.60;;;1.30;;
64459;SDS011;50828;53.756;21.140;2024-01-15T15:13:35;3.90;;;1.00;;
64459;SDS011;50828;53.756;21.140;2024-01-15T15:18:50;2.60;;;1.20;;
64459;SDS011;50828;53.756;21.140;2024-01-15T15:24:00;2.50;;;0.70;;
64459;SDS011;50828;53.756;21.140;2024-01-15T15:29:07;1.70;;;0.90;;
64459;SDS011;50828;53.756;21.140;2024-01-15T15:34:15;2.70;;;1.30;;
64459;SDS011;50828;53.756;21.140;2024-01-15T15:39:23;3.80;;;1.50;;
64459;SDS011;50828;53.756;21.140;2024-01-15T15:44:30;4.70;;;1.40;;
64459;SDS011;50828;53.756;21.140;2024-01-15T15:49:38;8.80;;;1.70;;
64459;SDS011;50828;53.756;21.140;2024-01-15T15:54:47;3.20;;;1.50;;
64459;SDS011;50828;53.756;21.140;2024-01-15T15:59:55;3.20;;;1.20;;
64459;SDS011;50828;53.756;21.140;2024-01-15T16:05:04;3.90;;;1.50;;
64459;SDS011;50828;53.756;21.140;2024-01-15T16:10:15;4.50;;;1.80;;
64459;SDS011;50828;53.756;21.140;2024-01-15T16:15:23;7.00;;;1.60;;
64459;SDS011;50828;53.756;21.140;2024-01-15T16:20:31;3.60;;;1.50;;
64459;SDS011;50828;53.756;21.140;2024-01-15T16:25:59;4.00;;;1.40;;
64459;SDS011;50828;53.756;21.140;2024-01-15T16:31:08;4.40;;;1.40;;
64459;SDS011;50828;53.756;21.140;2024-01-15T16:36:15;2.60;;;1.20;;
64459;SDS011;50828;53.756;21.140;2024-01-15T16:41:24;4.50;;;2.00;;
64459;SDS011;50828;53.756;21.140;2024-01-15T16:46:32;3.70;;;1.80;;
64459;SDS011;50828;53.756;21.140;2024-01-15T16:51:39;5.20;;;1.60;;
64459;SDS011;50828;53.756;21.140;2024-01-15T16:56:47;3.80;;;1.40;;
64459;SDS011;50828;53.756;21.140;2024-01-15T17:01:55;4.00;;;1.00;;
64459;SDS011;50828;53.756;21.140;2024-01-15T17:07:02;4.50;;;1.70;;
64459;SDS011;50828;53.756;21.140;2024-01-15T17:12:10;6.20;;;1.60;;
64459;SDS011;50828;53.756;21.140;2024-01-15T17:17:17;5.40;;;1.60;;
64459;SDS011;50828;53.756;21.140;2024-01-15T17:22:25;4.90;;;1.70;;
64459;SDS011;50828;53.756;21.140;2024-01-15T17:27:33;4.20;;;1.70;;
64459;SDS011;50828;53.756;21.140;2024-01-15T17:32:40;2.70;;;1.60;;
64459;SDS011;50828;53.756;21.140;2024-01-15T17:37:48;5.20;;;2.00;;
64459;SDS011;50828;53.756;21.140;2024-01-15T17:42:56;5.40;;;1.60;;
64459;SDS011;50828;53.756;21.140;2024-01-15T17:48:03;3.90;;;1.90;;
64459;SDS011;50828;53.756;21.140;2024-01-15T17:53:12;8.30;;;1.80;;
64459;SDS011;50828;53.756;21.140;2024-01-15T17:58:20;11.10;;;2.30;;
64459;SDS011;50828;53.756;21.140;2024-01-15T18:03:27;5.10;;;1.40;;
64459;SDS011;50828;53.756;21.140;2024-01-15T18:08:35;6.40;;;1.70;;
64459;SDS011;50828;53.756;21.140;2024-01-15T18:13:43;4.90;;;1.90;;
64459;SDS011;50828;53.756;21.140;2024-01-15T18:23:58;3.50;;;1.40;;
64459;SDS011;50828;53.756;21.140;2024-01-15T18:29:07;2.70;;;1.40;;
64459;SDS011;50828;53.756;21.140;2024-01-15T18:34:16;5.30;;;1.60;;
64459;SDS011;50828;53.756;21.140;2024-01-15T18:39:24;3.50;;;1.70;;
64459;SDS011;50828;53.756;21.140;2024-01-15T18:44:32;5.30;;;1.80;;
64459;SDS011;50828;53.756;21.140;2024-01-15T18:49:40;5.40;;;1.50;;
64459;SDS011;50828;53.756;21.140;2024-01-15T18:54:49;2.90;;;1.90;;
64459;SDS011;50828;53.756;21.140;2024-01-15T18:59:57;3.30;;;1.60;;
64459;SDS011;50828;53.756;21.140;2024-01-15T19:05:06;5.40;;;1.60;;
64459;SDS011;50828;53.756;21.140;2024-01-15T19:10:17;9.50;;;2.00;;
64459;SDS011;50828;53.756;21.140;2024-01-15T19:15:26;6.00;;;1.90;;
64459;SDS011;50828;53.756;21.140;2024-01-15T19:20:34;6.10;;;1.60;;
64459;SDS011;50828;53.756;21.140;2024-01-15T19:25:42;9.20;;;1.70;;
64459;SDS011;50828;53.756;21.140;2024-01-15T19:30:50;5.40;;;2.20;;
64459;SDS011;50828;53.756;21.140;2024-01-15T19:35:57;3.80;;;1.40;;
64459;SDS011;50828;53.756;21.140;2024-01-15T19:41:05;4.50;;;2.00;;
64459;SDS011;50828;53.756;21.140;2024-01-15T19:46:13;6.30;;;1.90;;
64459;SDS011;50828;53.756;21.140;2024-01-15T19:51:22;6.10;;;2.10;;
64459;SDS011;50828;53.756;21.140;2024-01-15T19:56:31;4.00;;;1.90;;
64459;SDS011;50828;53.756;21.140;2024-01-15T20:01:42;4.70;;;1.80;;
64459;SDS011;50828;53.756;21.140;2024-01-15T20:06:50;3.40;;;1.80;;
64459;SDS011;50828;53.756;21.140;2024-01-15T20:11:59;5.60;;;1.50;;
64459;SDS011;50828;53.756;21.140;2024-01-15T20:17:07;4.30;;;2.00;;
64459;SDS011;50828;53.756;21.140;2024-01-15T20:22:15;5.00;;;2.20;;
64459;SDS011;50828;53.756;21.140;2024-01-15T20:27:23;6.70;;;2.40;;
64459;SDS011;50828;53.756;21.140;2024-01-15T20:32:33;5.40;;;2.10;;
64459;SDS011;50828;53.756;21.140;2024-01-15T20:37:42;3.40;;;1.80;;
64459;SDS011;50828;53.756;21.140;2024-01-15T20:42:50;3.40;;;1.80;;
64459;SDS011;50828;53.756;21.140;2024-01-15T20:47:58;3.40;;;1.70;;
64459;SDS011;50828;53.756;21.140;2024-01-15T20:53:06;5.60;;;1.90;;
64459;SDS011;50828;53.756;21.140;2024-01-15T20:58:15;4.00;;;1.80;;
64459;SDS011;50828;53.756;21.140;2024-01-15T21:03:28;5.30;;;1.70;;
64459;SDS011;50828;53.756;21.140;2024-01-15T21:08:37;4.80;;;1.90;;
64459;SDS011;50828;53.756;21.140;2024-01-15T21:13:45;4.80;;;1.70;;
64459;SDS011;50828;53.756;21.140;2024-01-15T21:18:53;4.50;;;2.10;;
64459;SDS011;50828;53.756;21.140;2024-01-15T21:24:02;3.60;;;1.40;;
64459;SDS011;50828;53.756;21.140;2024-01-15T21:29:10;2.60;;;1.40;;
64459;SDS011;50828;53.756;21.140;2024-01-15T21:34:18;5.00;;;1.40;;
64459;SDS011;50828;53.756;21.140;2024-01-15T21:39:27;3.10;;;1.30;;
64459;SDS011;50828;53.756;21.140;2024-01-15T21:44:36;2.60;;;1.00;;
64459;SDS011;50828;53.756;21.140;2024-01-15T21:49:44;2.70;;;1.00;;
64459;SDS011;50828;53.756;21.140;2024-01-15T21:54:52;2.40;;;0.80;;
64459;SDS011;50828;53.756;21.140;2024-01-15T22:00:01;3.20;;;0.80;;
64459;SDS011;50828;53.756;21.140;2024-01-15T22:05:14;3.80;;;0.80;;
64459;SDS011;50828;53.756;21.140;2024-01-15T22:10:23;3.70;;;0.70;;
64459;SDS011;50828;53.756;21.140;2024-01-15T22:15:31;4.20;;;1.00;;
64459;SDS011;50828;53.756;21.140;2024-01-15T22:20:39;2.60;;;1.10;;
64459;SDS011;50828;53.756;21.140;2024-01-15T22:25:48;2.70;;;1.00;;
64459;SDS011;50828;53.756;21.140;2024-01-15T22:30:55;4.20;;;1.00;;
64459;SDS011;50828;53.756;21.140;2024-01-15T22:36:03;2.00;;;1.10;;
64459;SDS011;50828;53.756;21.140;2024-01-15T22:41:12;6.00;;;1.20;;
64459;SDS011;50828;53.756;21.140;2024-01-15T22:46:20;4.40;;;1.30;;
64459;SDS011;50828;53.756;21.140;2024-01-15T22:51:28;4.50;;;1.20;;
64459;SDS011;50828;53.756;21.140;2024-01-15T22:56:36;3.10;;;0.90;;
64459;SDS011;50828;53.756;21.140;2024-01-15T23:01:45;3.30;;;0.80;;
64459;SDS011;50828;53.756;21.140;2024-01-15T23:06:55;2.60;;;1.00;;
64459;SDS011;50828;53.756;21.140;2024-01-15T23:12:08;2.50;;;0.90;;
64459;SDS011;50828;53.756;21.140;2024-01-15T23:17:16;1.70;;;0.80;;
64459;SDS011;50828;53.756;21.140;2024-01-15T23:22:24;2.80;;;0.80;;
64459;SDS011;50828;53.756;21.140;2024-01-15T23:27:32;2.00;;;0.70;;
64459;SDS011;50828;53.756;21.140;2024-01-15T23:32:39;4.90;;;1.10;;
64459;SDS011;50828;53.756;21.140;2024-01-15T23:37:47;2.80;;;0.70;;
64459;SDS011;50828;53.756;21.140;2024-01-15T23:42:54;1.60;;;0.70;;
64459;SDS011;50828;53.756;21.140;2024-01-15T23:48:03;3.10;;;0.70;;
64459;SDS011;50828;53.756;21.140;2024-01-15T23:53:13;3.20;;;0.90;;
64459;SDS011;50828;53.756;21.140;2024-01-15T23:58:22;2.10;;;0.70;;
